createdAt,value
2023-03-11T00:00:47.326Z,2.50
2023-03-11T00:03:16.346Z,2.10
2023-03-11T00:05:45.730Z,1.77
2023-03-11T00:08:18.138Z,2.22
2023-03-11T00:10:47.162Z,2.40
2023-03-11T00:13:16.500Z,1.90
2023-03-11T00:15:47.189Z,1.90
2023-03-11T00:18:14.271Z,2.00
2023-03-11T00:20:45.476Z,2.00
2023-03-11T00:23:14.000Z,2.65
2023-03-11T00:25:43.633Z,2.67
2023-03-11T00:28:12.387Z,2.97
2023-03-11T00:30:41.059Z,3.13
2023-03-11T00:33:09.176Z,3.90
2023-03-11T00:35:36.568Z,2.25
2023-03-11T00:38:07.253Z,2.08
2023-03-11T00:40:35.950Z,2.35
2023-03-11T00:43:04.090Z,2.20
2023-03-11T00:45:31.889Z,2.63
2023-03-11T00:47:59.048Z,1.80
2023-03-11T00:50:30.901Z,1.90
2023-03-11T00:52:58.612Z,1.20
2023-03-11T00:55:32.601Z,1.70
2023-03-11T00:58:02.645Z,2.13
2023-03-11T01:00:30.966Z,1.70
2023-03-11T01:02:59.737Z,1.70
2023-03-11T01:05:31.031Z,1.98
2023-03-11T01:07:58.313Z,2.50
2023-03-11T01:10:26.005Z,1.95
2023-03-11T01:12:53.828Z,1.75
2023-03-11T01:15:29.451Z,2.08
2023-03-11T01:17:56.478Z,1.77
2023-03-11T01:20:23.921Z,1.80
2023-03-11T01:22:51.075Z,2.60
2023-03-11T01:25:21.261Z,2.15
2023-03-11T01:27:48.269Z,1.95
2023-03-11T01:30:22.290Z,1.90
2023-03-11T01:32:50.066Z,1.40
2023-03-11T01:35:19.445Z,1.70
2023-03-11T01:37:46.911Z,1.80
2023-03-11T01:40:48.334Z,3.47
2023-03-11T01:43:43.350Z,2.55
2023-03-11T01:46:15.189Z,2.38
2023-03-11T01:49:05.709Z,1.80
2023-03-11T01:51:40.806Z,1.80
2023-03-11T01:54:16.995Z,1.70
2023-03-11T01:56:45.584Z,1.98
2023-03-11T01:59:16.616Z,2.00
2023-03-11T02:01:59.508Z,1.75
2023-03-11T02:04:28.725Z,1.35
2023-03-11T02:06:59.171Z,1.75
2023-03-11T02:09:27.167Z,1.63
2023-03-11T02:11:54.595Z,1.70
2023-03-11T02:14:21.917Z,1.95
2023-03-11T02:16:48.888Z,1.50
2023-03-11T02:19:47.244Z,1.75
2023-03-11T02:22:14.569Z,1.90
2023-03-11T02:25:02.062Z,1.60
2023-03-11T02:27:32.044Z,1.42
2023-03-11T02:30:00.196Z,1.92
2023-03-11T02:32:27.532Z,1.65
2023-03-11T02:34:54.605Z,1.45
2023-03-11T02:37:21.650Z,1.08
2023-03-11T02:39:54.895Z,1.60
2023-03-11T02:42:32.410Z,1.40
2023-03-11T02:45:07.933Z,1.20
2023-03-11T02:47:36.041Z,3.15
2023-03-11T02:50:03.125Z,1.45
2023-03-11T02:52:34.055Z,1.42
2023-03-11T02:55:01.302Z,1.48
2023-03-11T02:57:28.358Z,1.40
2023-03-11T02:59:55.421Z,1.67
2023-03-11T03:02:22.492Z,1.05
2023-03-11T03:04:49.478Z,1.35
2023-03-11T03:07:16.569Z,1.40
2023-03-11T03:09:43.551Z,1.10
2023-03-11T03:12:10.822Z,1.38
2023-03-11T03:14:38.396Z,1.23
2023-03-11T03:17:05.502Z,1.70
2023-03-11T03:19:32.536Z,1.67
2023-03-11T03:21:59.489Z,1.40
2023-03-11T03:24:26.480Z,1.42
2023-03-11T03:26:53.508Z,1.30
2023-03-11T03:29:20.519Z,1.40
2023-03-11T03:31:47.652Z,1.13
2023-03-11T03:34:14.753Z,1.33
2023-03-11T03:36:42.341Z,1.33
2023-03-11T03:39:09.307Z,1.63
2023-03-11T03:41:36.366Z,1.50
2023-03-11T03:44:03.753Z,1.80
2023-03-11T03:46:30.730Z,1.40
2023-03-11T03:48:57.704Z,1.67
2023-03-11T03:51:24.848Z,1.08
2023-03-11T03:53:51.835Z,1.67
2023-03-11T03:56:19.641Z,1.30
2023-03-11T03:58:46.631Z,1.42
2023-03-11T04:01:13.816Z,1.48
2023-03-11T04:03:41.315Z,1.55
2023-03-11T04:06:27.246Z,1.30
2023-03-11T04:08:55.070Z,1.38
2023-03-11T04:11:22.386Z,1.23
2023-03-11T04:13:49.891Z,1.23
2023-03-11T04:16:20.360Z,1.60
2023-03-11T04:18:47.788Z,1.38
2023-03-11T04:21:14.968Z,1.40
2023-03-11T04:23:42.929Z,1.60
2023-03-11T04:26:10.088Z,1.73
2023-03-11T04:28:37.381Z,1.55
2023-03-11T04:31:05.023Z,1.60
2023-03-11T04:33:32.466Z,1.73
2023-03-11T04:35:59.815Z,2.28
2023-03-11T04:38:26.916Z,1.65
2023-03-11T04:40:53.897Z,1.83
2023-03-11T04:43:21.020Z,2.17
2023-03-11T06:03:20.193Z,2.00
2023-03-11T06:05:48.296Z,1.88
2023-03-11T06:08:15.851Z,2.00
2023-03-11T06:10:44.289Z,2.08
2023-03-11T06:13:13.279Z,2.40
2023-03-11T06:15:40.257Z,2.30
2023-03-11T06:18:07.228Z,2.17
2023-03-11T06:20:34.225Z,1.80
2023-03-11T06:23:01.229Z,1.77
2023-03-11T06:25:28.269Z,2.00
2023-03-11T06:27:55.277Z,2.72
2023-03-11T06:30:23.689Z,2.20
2023-03-11T06:32:50.814Z,2.30
2023-03-11T06:35:17.961Z,2.30
2023-03-11T06:37:45.098Z,3.35
2023-03-11T06:40:16.108Z,2.85
2023-03-11T06:42:47.692Z,2.40
2023-03-11T06:45:14.725Z,2.05
2023-03-11T06:47:44.096Z,2.55
2023-03-11T06:50:13.811Z,2.00
2023-03-11T06:52:40.787Z,2.45
2023-03-11T06:55:08.460Z,2.20
2023-03-11T06:57:35.505Z,2.03
2023-03-11T07:00:03.043Z,2.60
2023-03-11T07:02:30.121Z,2.67
2023-03-11T07:04:57.158Z,2.72
2023-03-11T07:07:24.232Z,2.47
2023-03-11T07:09:51.298Z,2.88
2023-03-11T07:12:18.304Z,2.72
2023-03-11T07:14:45.399Z,2.75
2023-03-11T07:17:13.331Z,3.20
2023-03-11T07:19:42.583Z,3.17
2023-03-11T07:22:09.581Z,2.97
2023-03-11T07:24:36.557Z,3.22
2023-03-11T07:27:03.618Z,3.40
2023-03-11T07:29:30.617Z,2.67
2023-03-11T07:31:57.646Z,2.70
2023-03-11T07:34:24.701Z,2.47
2023-03-11T07:36:51.687Z,3.10
2023-03-11T07:39:19.254Z,3.08
2023-03-11T07:41:47.117Z,3.17
2023-03-11T07:44:15.827Z,3.03
2023-03-11T07:46:44.436Z,2.92
2023-03-11T07:49:12.293Z,2.22
2023-03-11T07:51:46.116Z,2.50
2023-03-11T07:54:13.833Z,1.90
2023-03-11T07:56:44.481Z,1.95
2023-03-11T07:59:11.942Z,1.83
2023-03-11T08:01:41.770Z,2.30
2023-03-11T08:04:14.579Z,2.17
2023-03-11T08:06:44.490Z,1.80
2023-03-11T08:09:13.640Z,2.00
2023-03-11T08:11:40.940Z,2.22
2023-03-11T08:14:08.104Z,2.00
2023-03-11T08:16:35.467Z,1.73
2023-03-11T08:19:02.731Z,2.13
2023-03-11T08:21:32.454Z,2.15
2023-03-11T08:24:01.639Z,2.05
2023-03-11T08:26:29.395Z,2.10
2023-03-11T08:28:57.737Z,2.22
2023-03-11T08:31:29.143Z,2.00
2023-03-11T08:34:04.055Z,1.70
2023-03-11T08:36:32.213Z,1.70
2023-03-11T08:39:00.186Z,1.83
2023-03-11T08:41:28.136Z,1.90
2023-03-11T08:43:55.590Z,2.25
2023-03-11T08:46:35.629Z,2.67
2023-03-11T08:49:04.369Z,1.60
2023-03-11T08:51:33.246Z,2.40
2023-03-11T08:54:01.935Z,3.70
2023-03-11T08:56:29.297Z,2.35
2023-03-11T08:58:56.304Z,2.20
2023-03-11T09:01:23.828Z,2.25
2023-03-11T09:03:50.978Z,1.80
2023-03-11T09:06:18.536Z,2.53
2023-03-11T09:08:46.862Z,2.10
2023-03-11T09:11:18.538Z,1.90
2023-03-11T09:13:45.590Z,2.10
2023-03-11T09:16:18.852Z,2.00
2023-03-11T09:18:45.979Z,1.50
2023-03-11T09:21:13.903Z,1.73
2023-03-11T09:23:44.157Z,1.63
2023-03-11T09:26:14.370Z,1.88
2023-03-11T09:28:42.052Z,2.00
2023-03-11T09:31:09.653Z,2.75
2023-03-11T09:33:44.736Z,4.47
2023-03-11T09:36:17.564Z,2.05
2023-03-11T09:38:45.029Z,2.50
2023-03-11T09:41:55.411Z,1.55
2023-03-11T09:44:44.247Z,2.00
2023-03-11T09:47:26.346Z,2.75
2023-03-11T09:49:58.914Z,2.45
2023-03-11T09:52:51.961Z,2.00
2023-03-11T09:55:37.433Z,1.60
2023-03-11T09:58:36.047Z,1.70
2023-03-11T10:01:10.748Z,1.70
2023-03-11T10:03:39.879Z,2.00
2023-03-11T10:06:14.567Z,2.95
2023-03-11T10:08:48.155Z,2.50
2023-03-11T10:11:49.085Z,2.25
2023-03-11T10:14:57.484Z,2.63
2023-03-11T10:17:39.365Z,1.70
2023-03-11T10:23:25.184Z,1.55
2023-03-11T10:26:19.976Z,1.48
2023-03-11T10:28:56.318Z,2.10
2023-03-11T10:31:32.246Z,1.50
2023-03-11T10:34:39.729Z,1.92
2023-03-11T10:37:17.308Z,1.65
2023-03-11T10:39:48.208Z,1.77
2023-03-11T10:42:25.347Z,1.95
2023-03-11T10:44:52.723Z,2.03
2023-03-11T10:47:24.306Z,3.05
2023-03-11T10:49:52.686Z,3.40
2023-03-11T10:52:20.505Z,2.83
2023-03-11T10:54:59.123Z,1.58
2023-03-11T10:57:34.524Z,1.45
2023-03-11T11:00:17.515Z,2.10
2023-03-11T11:02:58.321Z,1.73
2023-03-11T11:05:34.388Z,1.45
2023-03-11T11:08:15.614Z,2.15
2023-03-11T11:10:58.362Z,1.77
2023-03-11T11:13:31.318Z,1.48
2023-03-11T11:16:06.602Z,1.75
2023-03-11T11:19:00.108Z,1.85
2023-03-11T11:21:48.910Z,1.55
2023-03-11T11:24:29.020Z,1.88
2023-03-11T11:27:25.931Z,1.98
2023-03-11T11:30:08.911Z,1.40
2023-03-11T11:32:37.492Z,1.52
2023-03-11T11:35:08.194Z,1.40
2023-03-11T11:37:48.478Z,0.95
2023-03-11T11:40:15.874Z,2.08
2023-03-11T11:43:03.923Z,1.80
2023-03-11T11:45:41.571Z,1.40
2023-03-11T11:48:33.884Z,2.17
2023-03-11T11:51:03.098Z,1.65
2023-03-11T11:54:18.888Z,1.83
2023-03-11T11:56:46.499Z,1.35
2023-03-11T11:59:24.672Z,2.85
2023-03-11T12:02:16.408Z,1.33
2023-03-11T12:05:14.259Z,2.25
2023-03-11T12:08:21.060Z,1.70
2023-03-11T12:11:10.504Z,1.23
2023-03-11T12:14:11.545Z,1.60
2023-03-11T12:17:03.780Z,1.20
2023-03-11T12:20:04.116Z,1.90
2023-03-11T12:23:00.424Z,1.50
2023-03-11T12:26:03.525Z,1.83
2023-03-11T12:29:07.289Z,1.25
2023-03-11T12:31:39.523Z,1.42
2023-03-11T12:34:15.233Z,1.83
2023-03-11T12:36:44.763Z,2.03
2023-03-11T12:39:25.248Z,1.63
2023-03-11T12:42:11.252Z,1.52
2023-03-11T12:44:39.877Z,2.10
2023-03-11T12:47:25.906Z,1.80
2023-03-11T12:50:16.694Z,2.40
2023-03-11T12:52:54.869Z,3.72
2023-03-11T12:55:31.358Z,2.85
2023-03-11T12:58:16.568Z,1.50
2023-03-11T13:01:21.787Z,1.95
2023-03-11T13:04:31.090Z,2.25
2023-03-11T13:07:45.870Z,2.20
2023-03-11T13:10:36.053Z,2.78
2023-03-11T13:13:22.041Z,3.58
2023-03-11T13:15:49.443Z,1.40
2023-03-11T13:18:34.902Z,1.60
2023-03-11T13:21:03.378Z,2.65
2023-03-11T13:23:36.913Z,2.60
2023-03-11T13:26:35.370Z,2.30
2023-03-11T13:29:34.942Z,1.30
2023-03-11T13:32:12.169Z,1.50
2023-03-11T13:34:44.786Z,1.20
2023-03-11T13:37:40.787Z,1.50
2023-03-11T13:40:23.149Z,1.40
2023-03-11T13:43:02.847Z,1.50
2023-03-11T13:45:36.590Z,1.75
2023-03-11T13:48:15.816Z,1.92
2023-03-11T13:50:51.607Z,1.67
2023-03-11T13:53:25.858Z,1.35
2023-03-11T13:55:53.225Z,1.55
2023-03-11T13:58:28.899Z,1.45
2023-03-11T14:06:01.607Z,2.30
2023-03-11T17:38:33.193Z,7.68
2023-03-11T17:41:00.286Z,6.47
2023-03-11T17:43:27.291Z,5.70
2023-03-11T17:45:54.337Z,7.43
2023-03-11T17:48:21.405Z,6.28
2023-03-11T17:50:48.473Z,6.60
2023-03-11T17:53:15.451Z,5.18
2023-03-11T17:55:42.960Z,6.68
2023-03-11T17:58:10.021Z,6.78
2023-03-11T18:00:37.513Z,8.50
2023-03-11T18:03:04.479Z,7.65
2023-03-11T18:05:31.462Z,7.15
2023-03-11T18:07:58.842Z,9.20
2023-03-11T18:10:25.859Z,9.82
2023-03-11T18:12:52.882Z,11.18
2023-03-11T18:15:20.006Z,12.98
2023-03-11T18:17:47.634Z,11.20
2023-03-11T18:20:16.197Z,9.07
2023-03-11T19:21:40.328Z,19.23
2023-03-11T20:43:39.789Z,3.15
2023-03-11T20:46:09.023Z,3.10
2023-03-11T20:48:37.125Z,2.80
2023-03-11T20:51:07.449Z,3.15
2023-03-11T20:53:34.862Z,3.20
2023-03-11T20:56:08.751Z,2.55
2023-03-11T20:58:36.251Z,3.22
2023-03-11T21:01:15.536Z,2.95
2023-03-11T22:35:00.484Z,5.45
2023-03-11T22:37:28.034Z,5.60
2023-03-11T22:39:55.133Z,5.93
2023-03-11T22:42:22.106Z,6.22
2023-03-11T22:44:49.177Z,6.40
2023-03-11T22:47:16.199Z,6.32
